Ana Sayfa
METAR-TAF:

METAR-TAF

Havaalanları :

Szolnok, Macaristan

Enlem: 47-07N, Boylam: 020-14E, yükseklik: 89 m

Güncel hava durumu gözlemi

Rapor saat 06:45 UTC de 46 dakika önce yapıldı.
Rüzgar doğu/kuzeydoğudan 6 kt, kuzey/kuzeydoğu ve doğu arasında değişken
Sıcaklık 23°C
Nem 61%
Basınç 1018 hPa
Görüş mesafesi 10 km veya daha fazla
3300 ft yükseklikte az bulutlu

METAR: LHSN 240645Z 07006KT 030V100 9999 FEW033 23/15 Q1018 NOSIG RMK BLU

Saat: 09:31 (07:31 UTC)

Tahmin

Rapor saat 05:15 UTC de 2 saat ve 16 dakika önce yapıldı.
Ayın 24'si saat 06 UTC'den ayın 24'si saat 15 UTC'ye kadar geçerli Tahmin
Rüzgar kuzey/kuzeydoğudan 8 kt
Görüş mesafesi 10 km veya daha fazla
1500 m altında bulut yok ve kümülonimbus yok
Geçici
ayın 24'si saat 07 UTC'den ayın 24'si saat 10 UTC'ye kadar
Görüş mesafesi 10 km veya daha fazla
4000 ft yükseklikte az bulutlu

TAF: LHSN 240515Z 2406/2415 02008KT CAVOK TEMPO 2407/2410 9999 FEW040

4.000'den fazla havaalanı için hava durumu gözlemleri ve tahminleri (METAR ve TAF raporları).

Kullanılabilir istasyonlar harita üzerinde sarı ve kırmızı noktalarla gösterilir.

İstasyonun adını görmek için fareyi noktanın üzerinde gezdirin.

Sonrasında hava gözlem ve tahminlerini görmek için tıklayın.

Haritayı değiştirmek için: yaklaştırmak için siyah artı işaretli yeşil düğmeye ve uzaklaştırmak için de eksi işaretli düğmeye hızla tıklayın; bitişik haritalar için yeşil okları kullanın.


METAR-TAF: